Kaszuby — C6XD6 — position and weather

sailwx.info

Track history (hours):
 
Tides and Currents Weather Stations Pressure Air Temp Water Temp Dewpoint Dewpoint Depression Visibility Wind Speed Wind Dir Waves Ship Positions

Kaszuby

Last reported at 2017-Aug-16 19:30 UTC. Time now 2017-Aug-16 19:43 UTC.
Position N 51°25' E 003°42'.

Length 190 m; draft 9.9 m.

Type: Cargo ship. MMSI: 311005600.

Date/timePositionNaut miles runAvg speedWind from/ knotsBaromVisibWave heightAir tempDewpointWater temp
2017-Aug-16 19:30N 51°25' E 003°42'510.6
2017-Aug-16 19:00N 51°25' E 003°34'713.1
2017-Aug-16 18:30N 51°24' E 003°23'714.6
2017-Aug-16 18:00N 51°24' E 003°12'713.1
2017-Aug-16 17:30N 51°24' E 003°01'612.8
2017-Aug-16 17:00N 51°22' E 002°51'611.4
2017-Aug-16 16:30N 51°22' E 002°42'510.0
2017-Aug-16 16:00N 51°22' E 002°34'5 9.9
2017-Aug-16 15:30N 51°21' E 002°27'5 9.9
2017-Aug-16 15:00N 51°18' E 002°20'5 9.7
2017-Aug-16 14:30N 51°16' E 002°13'5 9.1
2017-Aug-16 14:00N 51°13' E 002°07'5 9.3
2017-Aug-16 13:30N 51°11' E 002°00'5 9.2
2017-Aug-16 13:00N 51°09' E 001°54'5 9.2
2017-Aug-16 12:30N 51°06' E 001°48'5 9.0
2017-Aug-16 12:00N 51°03' E 001°42'5 9.3
2017-Aug-16 11:30N 51°00' E 001°37'5 9.9
2017-Aug-16 11:00N 50°57' E 001°31'510.1
2017-Aug-16 10:28N 50°53' E 001°26'510.6
2017-Aug-16 10:00N 50°48' E 001°24'510.7
2017-Aug-16 09:30N 50°43' E 001°22'910.8
2017-Aug-16 08:42N 50°37' E 001°12'511.0
2017-Aug-16 08:12N 50°33' E 001°05'610.8
2017-Aug-16 07:36N 50°29' E 000°57'110.8
2017-Aug-16 07:30N 50°29' E 000°55'2611.0
2017-Aug-16 05:06N 50°22' E 000°15'311.5
2017-Aug-16 04:49N 50°21' E 000°11'411.7
2017-Aug-16 04:28N 50°20' E 000°04'612.0
2017-Aug-16 03:58N 50°19' W 000°05'612.3
2017-Aug-16 03:30N 50°17' W 000°13'712.8
2017-Aug-16 02:58N 50°15' W 000°24'613.0
2017-Aug-16 02:30N 50°13' W 000°33'713.2
2017-Aug-16 02:00N 50°12' W 000°43'713.4
2017-Aug-16 01:30N 50°10' W 000°53'713.4
2017-Aug-16 01:00N 50°08' W 001°03'713.3
2017-Aug-16 00:30N 50°06' W 001°13'612.9
2017-Aug-16 00:00N 50°05' W 001°23'612.5
2017-Aug-15 23:30N 50°03' W 001°32'612.1
2017-Aug-15 23:00N 50°01' W 001°41'611.5
2017-Aug-15 22:30N 49°60' W 001°50'610.9
2017-Aug-15 21:59N 49°58' W 001°58'510.3
2017-Aug-15 21:30N 49°57' W 002°06'5 9.8
2017-Aug-15 21:00N 49°56' W 002°13'5 9.4
2017-Aug-15 20:30N 49°55' W 002°20'5 9.2
2017-Aug-15 20:00N 49°53' W 002°27'5 9.0
2017-Aug-15 19:30N 49°52' W 002°34'5 9.0
2017-Aug-15 19:00N 49°51' W 002°40'5 9.3
2017-Aug-15 18:30N 49°50' W 002°47'5 9.5
2017-Aug-15 18:00N 49°48' W 002°54'5 9.9
2017-Aug-15 17:30N 49°46' W 003°01'510.2
2017-Aug-15 17:00N 49°43' W 003°08'510.4
2017-Aug-15 16:30N 49°41' W 003°15'510.5
2017-Aug-15 16:00N 49°38' W 003°22'610.7
2017-Aug-15 15:29N 49°35' W 003°29'810.9
2017-Aug-15 14:47N 49°31' W 003°39'710.9
2017-Aug-15 14:07N 49°28' W 003°49'511.0
2017-Aug-15 13:42N 49°25' W 003°55'45110.3
2017-Aug-13 18:06N 43°06' W 009°48'110.6
2017-Aug-13 18:00N 43°05' W 009°47'610.4
2017-Aug-13 17:24N 42°58' W 009°47'410.2
2017-Aug-13 16:59N 42°54' W 009°48'510.4
2017-Aug-13 16:28N 42°49' W 009°48'510.2
2017-Aug-13 16:00N 42°44' W 009°48'1210.2
2017-Aug-13 14:49N 42°32' W 009°49'310.0
2017-Aug-13 14:30N 42°29' W 009°49'510.2
2017-Aug-13 14:00N 42°24' W 009°48'510.2
2017-Aug-13 13:30N 42°19' W 009°48'510.1
2017-Aug-13 13:00N 42°13' W 009°48'510.0
2017-Aug-13 12:30N 42°09' W 009°48'5 9.8
2017-Aug-13 12:00N 42°04' W 009°48'510.3
2017-Aug-13 11:30N 41°58' W 009°48'510.4
2017-Aug-13 11:00N 41°53' W 009°48'510.2
2017-Aug-13 10:29N 41°48' W 009°49'510.1
2017-Aug-13 10:00N 41°43' W 009°49'510.2
2017-Aug-13 09:30N 41°38' W 009°49'1110.1
2017-Aug-13 08:24N 41°27' W 009°49'510.3
2017-Aug-13 07:52N 41°21' W 009°49'410.2
2017-Aug-13 07:30N 41°18' W 009°49'610.4
2017-Aug-13 06:54N 41°11' W 009°49'410.5
2017-Aug-13 06:30N 41°07' W 009°49'510.4
2017-Aug-13 06:00N 41°02' W 009°49'510.6
2017-Aug-13 05:30N 40°57' W 009°49'510.2
2017-Aug-13 05:00N 40°52' W 009°49'510.1
2017-Aug-13 04:30N 40°47' W 009°49'5 9.8
2017-Aug-13 04:00N 40°42' W 009°50'510.0
2017-Aug-13 03:30N 40°37' W 009°50'510.1
2017-Aug-13 03:00N 40°32' W 009°50'510.0
2017-Aug-13 02:28N 40°26' W 009°50'5 9.9
2017-Aug-13 02:00N 40°22' W 009°50'5 9.9
2017-Aug-13 01:29N 40°17' W 009°50'510.1
2017-Aug-13 01:00N 40°12' W 009°50'510.3
2017-Aug-13 00:30N 40°07' W 009°50'510.0
2017-Aug-13 00:00N 40°02' W 009°50'5 9.7
2017-Aug-12 23:30N 39°57' W 009°50'5 9.8
2017-Aug-12 23:00N 39°52' W 009°50'5 9.8
2017-Aug-12 22:30N 39°47' W 009°50'510.0
2017-Aug-12 22:00N 39°42' W 009°50'510.1
2017-Aug-12 21:30N 39°37' W 009°51'510.3
2017-Aug-12 21:00N 39°32' W 009°51'510.5
2017-Aug-12 20:30N 39°26' W 009°51'510.2
2017-Aug-12 20:00N 39°21' W 009°51'510.3
2017-Aug-12 19:30N 39°16' W 009°51'510.6
2017-Aug-12 19:00N 39°11' W 009°51'510.0
2017-Aug-12 18:30N 39°06' W 009°52'510.4
2017-Aug-12 18:00N 39°01' W 009°52'510.6
2017-Aug-12 17:30N 38°55' W 009°52'510.6
2017-Aug-12 17:00N 38°50' W 009°52'1010.5
2017-Aug-12 16:00N 38°40' W 009°51'510.1
2017-Aug-12 15:30N 38°35' W 009°50'510.0
2017-Aug-12 15:00N 38°30' W 009°48'510.1
2017-Aug-12 14:30N 38°25' W 009°46'510.0
2017-Aug-12 14:00N 38°20' W 009°45'5 9.8
2017-Aug-12 13:30N 38°15' W 009°44'510.1
2017-Aug-12 13:00N 38°10' W 009°42'510.2
2017-Aug-12 12:30N 38°05' W 009°41'510.5
2017-Aug-12 12:00N 38°00' W 009°39'510.4
2017-Aug-12 11:30N 37°55' W 009°38'510.1
2017-Aug-12 11:00N 37°50' W 009°36'510.0
2017-Aug-12 10:30N 37°45' W 009°35'5 9.6
2017-Aug-12 10:00N 37°41' W 009°34'5 9.5
2017-Aug-12 09:30N 37°36' W 009°32'510.0
2017-Aug-12 09:00N 37°31' W 009°30'510.5
2017-Aug-12 08:30N 37°26' W 009°29'510.6
2017-Aug-12 08:00N 37°21' W 009°27'510.5
2017-Aug-12 07:30N 37°16' W 009°26'510.7
2017-Aug-12 07:00N 37°11' W 009°25'510.7
2017-Aug-12 06:30N 37°05' W 009°23'510.8
2017-Aug-12 06:00N 37°00' W 009°22'510.4
2017-Aug-12 05:30N 36°55' W 009°20'510.4
2017-Aug-12 05:00N 36°51' W 009°16'510.8
2017-Aug-12 04:30N 36°47' W 009°12'1810.3
2017-Aug-12 02:43N 36°40' W 008°51'3310.7
2017-Aug-11 23:37N 36°30' W 008°11'210.8
2017-Aug-11 23:26N 36°29' W 008°09'510.8
2017-Aug-11 22:59N 36°28' W 008°03'510.6
2017-Aug-11 22:30N 36°26' W 007°57'11611.0
2017-Aug-11 11:58N 35°58' W 005°38'510.6
2017-Aug-11 11:30N 35°59' W 005°32'510.1
2017-Aug-11 11:00N 35°60' W 005°26'510.1
2017-Aug-11 10:30N 36°01' W 005°20'510.3
2017-Aug-11 10:00N 36°02' W 005°14'  
2017-Aug-08 21:18N 37°39' E 008°05'411.7
2017-Aug-08 20:59N 37°39' E 008°09'812.1
2017-Aug-08 20:20N 37°39' E 008°19'1311.7
2017-Aug-08 19:12N 37°40' E 008°36'311.5
2017-Aug-08 18:58N 37°41' E 008°39'710.8
2017-Aug-08 18:19N 37°42' E 008°48'410.6
2017-Aug-08 17:55N 37°42' E 008°54'510.5
2017-Aug-08 17:27N 37°42' E 008°60'510.7
2017-Aug-08 17:00N 37°42' E 009°06'510.6
2017-Aug-08 16:30N 37°42' E 009°12'510.6
2017-Aug-08 15:59N 37°42' E 009°19'510.6
2017-Aug-08 15:30N 37°41' E 009°26'610.6
2017-Aug-08 14:57N 37°41' E 009°33'510.6
2017-Aug-08 14:29N 37°41' E 009°39'510.7
2017-Aug-08 14:00N 37°41' E 009°46'510.9
2017-Aug-08 13:30N 37°41' E 009°53'611.1
2017-Aug-08 13:00N 37°40' E 010°00'511.0
2017-Aug-08 12:30N 37°40' E 010°07'510.9
2017-Aug-08 12:00N 37°40' E 010°14'611.1
2017-Aug-08 11:30N 37°38' E 010°21'511.0
2017-Aug-08 11:00N 37°37' E 010°27'510.9
2017-Aug-08 10:30N 37°36' E 010°34'511.0
2017-Aug-08 10:00N 37°34' E 010°41'510.8
2017-Aug-08 09:30N 37°33' E 010°47'510.9
2017-Aug-08 09:00N 37°31' E 010°54'511.0
2017-Aug-08 08:30N 37°30' E 011°00'610.8
2017-Aug-08 07:59N 37°28' E 011°07'510.6
2017-Aug-08 07:29N 37°27' E 011°14'3010.8
2017-Aug-08 04:43N 37°12' E 011°47'211.3
2017-Aug-08 04:30N 37°11' E 011°49'811.4
2017-Aug-08 03:46N 37°08' E 011°59'311.4
2017-Aug-08 03:30N 37°06' E 012°02'1711.3
2017-Aug-08 02:00N 36°60' E 012°22'611.4
2017-Aug-08 01:30N 36°58' E 012°28'611.3
2017-Aug-08 00:59N 36°56' E 012°35'711.2
2017-Aug-08 00:24N 36°55' E 012°43'411.3
2017-Aug-08 00:00N 36°54' E 012°49'611.0
2017-Aug-07 23:30N 36°53' E 012°56'510.8
2017-Aug-07 23:00N 36°52' E 013°02'610.8
2017-Aug-07 22:26N 36°51' E 013°10'2511.1
2017-Aug-07 20:11N 36°46' E 013°40'410.9
2017-Aug-07 19:46N 36°45' E 013°46'311.0
2017-Aug-07 19:30N 36°44' E 013°49'510.9
2017-Aug-07 19:00N 36°43' E 013°56'510.7
2017-Aug-07 18:30N 36°42' E 014°03'510.6
2017-Aug-07 18:00N 36°41' E 014°09'510.5
2017-Aug-07 17:30N 36°40' E 014°16'510.3
2017-Aug-07 17:00N 36°39' E 014°22'510.3
2017-Aug-07 16:30N 36°38' E 014°28'510.3
2017-Aug-07 16:00N 36°37' E 014°35'510.1
2017-Aug-07 15:30N 36°36' E 014°41'510.2
2017-Aug-07 15:00N 36°35' E 014°47'510.5
2017-Aug-07 14:30N 36°34' E 014°53'510.6
2017-Aug-07 14:00N 36°33' E 014°60'611.2
2017-Aug-07 13:30N 36°32' E 015°07'611.5
2017-Aug-07 13:00N 36°32' E 015°14'611.5
2017-Aug-07 12:30N 36°32' E 015°21'611.4
2017-Aug-07 12:00N 36°32' E 015°28'611.4
2017-Aug-07 11:30N 36°32' E 015°35'611.4
2017-Aug-07 11:00N 36°31' E 015°42'611.4
2017-Aug-07 10:30N 36°31' E 015°49'611.4
2017-Aug-07 10:00N 36°31' E 015°57'911.4
2017-Aug-07 09:12N 36°31' E 016°08'211.4
2017-Aug-07 09:00N 36°31' E 016°11'611.3
2017-Aug-07 08:28N 36°31' E 016°18'7210.8
2017-Aug-07 01:50N 36°28' E 017°47'410.5
2017-Aug-07 01:30N 36°28' E 017°52'510.5
2017-Aug-07 00:59N 36°28' E 017°58'610.5
2017-Aug-07 00:27N 36°28' E 018°06'510.6
2017-Aug-07 00:00N 36°27' E 018°11'610.6
2017-Aug-06 23:24N 36°27' E 018°19'610.8
2017-Aug-06 22:52N 36°27' E 018°27'410.9
2017-Aug-06 22:30N 36°27' E 018°31'1211.0
2017-Aug-06 21:25N 36°27' E 018°46'1111.1
2017-Aug-06 20:26N 36°26' E 018°60'511.2
2017-Aug-06 20:00N 36°26' E 019°06'  
Track history (hours):
 
Tides and Currents Weather Stations Pressure Air Temp Water Temp Dewpoint Dewpoint Depression Visibility Wind Speed Wind Dir Waves Ship Positions

Kaszuby

Last reported at 2017-Aug-16 19:30 UTC. Time now 2017-Aug-16 19:43 UTC.
Position N 51°25' E 003°42'.

Length 190 m; draft 9.9 m.

Type: Cargo ship. MMSI: 311005600.

Date/timePositionNaut miles runAvg speedWind from/ knotsBaromVisibWave heightAir tempDewpointWater temp
2017-Aug-16 19:30N 51°25' E 003°42'510.6
2017-Aug-16 19:00N 51°25' E 003°34'713.1
2017-Aug-16 18:30N 51°24' E 003°23'714.6
2017-Aug-16 18:00N 51°24' E 003°12'713.1
2017-Aug-16 17:30N 51°24' E 003°01'612.8
2017-Aug-16 17:00N 51°22' E 002°51'611.4
2017-Aug-16 16:30N 51°22' E 002°42'510.0
2017-Aug-16 16:00N 51°22' E 002°34'5 9.9
2017-Aug-16 15:30N 51°21' E 002°27'5 9.9
2017-Aug-16 15:00N 51°18' E 002°20'5 9.7
2017-Aug-16 14:30N 51°16' E 002°13'5 9.1
2017-Aug-16 14:00N 51°13' E 002°07'5 9.3
2017-Aug-16 13:30N 51°11' E 002°00'5 9.2
2017-Aug-16 13:00N 51°09' E 001°54'5 9.2
2017-Aug-16 12:30N 51°06' E 001°48'5 9.0
2017-Aug-16 12:00N 51°03' E 001°42'5 9.3
2017-Aug-16 11:30N 51°00' E 001°37'5 9.9
2017-Aug-16 11:00N 50°57' E 001°31'510.1
2017-Aug-16 10:28N 50°53' E 001°26'510.6
2017-Aug-16 10:00N 50°48' E 001°24'510.7
2017-Aug-16 09:30N 50°43' E 001°22'910.8
2017-Aug-16 08:42N 50°37' E 001°12'511.0
2017-Aug-16 08:12N 50°33' E 001°05'610.8
2017-Aug-16 07:36N 50°29' E 000°57'110.8
2017-Aug-16 07:30N 50°29' E 000°55'2611.0
2017-Aug-16 05:06N 50°22' E 000°15'311.5
2017-Aug-16 04:49N 50°21' E 000°11'411.7
2017-Aug-16 04:28N 50°20' E 000°04'612.0
2017-Aug-16 03:58N 50°19' W 000°05'612.3
2017-Aug-16 03:30N 50°17' W 000°13'712.8
2017-Aug-16 02:58N 50°15' W 000°24'613.0
2017-Aug-16 02:30N 50°13' W 000°33'713.2
2017-Aug-16 02:00N 50°12' W 000°43'713.4
2017-Aug-16 01:30N 50°10' W 000°53'713.4
2017-Aug-16 01:00N 50°08' W 001°03'713.3
2017-Aug-16 00:30N 50°06' W 001°13'612.9
2017-Aug-16 00:00N 50°05' W 001°23'612.5
2017-Aug-15 23:30N 50°03' W 001°32'612.1
2017-Aug-15 23:00N 50°01' W 001°41'611.5
2017-Aug-15 22:30N 49°60' W 001°50'610.9
2017-Aug-15 21:59N 49°58' W 001°58'510.3
2017-Aug-15 21:30N 49°57' W 002°06'5 9.8
2017-Aug-15 21:00N 49°56' W 002°13'5 9.4
2017-Aug-15 20:30N 49°55' W 002°20'5 9.2
2017-Aug-15 20:00N 49°53' W 002°27'5 9.0
2017-Aug-15 19:30N 49°52' W 002°34'5 9.0
2017-Aug-15 19:00N 49°51' W 002°40'5 9.3
2017-Aug-15 18:30N 49°50' W 002°47'5 9.5
2017-Aug-15 18:00N 49°48' W 002°54'5 9.9
2017-Aug-15 17:30N 49°46' W 003°01'510.2
2017-Aug-15 17:00N 49°43' W 003°08'510.4
2017-Aug-15 16:30N 49°41' W 003°15'510.5
2017-Aug-15 16:00N 49°38' W 003°22'610.7
2017-Aug-15 15:29N 49°35' W 003°29'810.9
2017-Aug-15 14:47N 49°31' W 003°39'710.9
2017-Aug-15 14:07N 49°28' W 003°49'511.0
2017-Aug-15 13:42N 49°25' W 003°55'45110.3
2017-Aug-13 18:06N 43°06' W 009°48'110.6
2017-Aug-13 18:00N 43°05' W 009°47'610.4
2017-Aug-13 17:24N 42°58' W 009°47'410.2
2017-Aug-13 16:59N 42°54' W 009°48'510.4
2017-Aug-13 16:28N 42°49' W 009°48'510.2
2017-Aug-13 16:00N 42°44' W 009°48'1210.2
2017-Aug-13 14:49N 42°32' W 009°49'310.0
2017-Aug-13 14:30N 42°29' W 009°49'510.2
2017-Aug-13 14:00N 42°24' W 009°48'510.2
2017-Aug-13 13:30N 42°19' W 009°48'510.1
2017-Aug-13 13:00N 42°13' W 009°48'510.0
2017-Aug-13 12:30N 42°09' W 009°48'5 9.8
2017-Aug-13 12:00N 42°04' W 009°48'510.3
2017-Aug-13 11:30N 41°58' W 009°48'510.4
2017-Aug-13 11:00N 41°53' W 009°48'510.2
2017-Aug-13 10:29N 41°48' W 009°49'510.1
2017-Aug-13 10:00N 41°43' W 009°49'510.2
2017-Aug-13 09:30N 41°38' W 009°49'1110.1
2017-Aug-13 08:24N 41°27' W 009°49'510.3
2017-Aug-13 07:52N 41°21' W 009°49'410.2
2017-Aug-13 07:30N 41°18' W 009°49'610.4
2017-Aug-13 06:54N 41°11' W 009°49'410.5
2017-Aug-13 06:30N 41°07' W 009°49'510.4
2017-Aug-13 06:00N 41°02' W 009°49'510.6
2017-Aug-13 05:30N 40°57' W 009°49'510.2
2017-Aug-13 05:00N 40°52' W 009°49'510.1
2017-Aug-13 04:30N 40°47' W 009°49'5 9.8
2017-Aug-13 04:00N 40°42' W 009°50'510.0
2017-Aug-13 03:30N 40°37' W 009°50'510.1
2017-Aug-13 03:00N 40°32' W 009°50'510.0
2017-Aug-13 02:28N 40°26' W 009°50'5 9.9
2017-Aug-13 02:00N 40°22' W 009°50'5 9.9
2017-Aug-13 01:29N 40°17' W 009°50'510.1
2017-Aug-13 01:00N 40°12' W 009°50'510.3
2017-Aug-13 00:30N 40°07' W 009°50'510.0
2017-Aug-13 00:00N 40°02' W 009°50'5 9.7
2017-Aug-12 23:30N 39°57' W 009°50'5 9.8
2017-Aug-12 23:00N 39°52' W 009°50'5 9.8
2017-Aug-12 22:30N 39°47' W 009°50'510.0
2017-Aug-12 22:00N 39°42' W 009°50'510.1
2017-Aug-12 21:30N 39°37' W 009°51'510.3
2017-Aug-12 21:00N 39°32' W 009°51'510.5
2017-Aug-12 20:30N 39°26' W 009°51'510.2
2017-Aug-12 20:00N 39°21' W 009°51'510.3
2017-Aug-12 19:30N 39°16' W 009°51'510.6
2017-Aug-12 19:00N 39°11' W 009°51'510.0
2017-Aug-12 18:30N 39°06' W 009°52'510.4
2017-Aug-12 18:00N 39°01' W 009°52'510.6
2017-Aug-12 17:30N 38°55' W 009°52'510.6
2017-Aug-12 17:00N 38°50' W 009°52'1010.5
2017-Aug-12 16:00N 38°40' W 009°51'510.1
2017-Aug-12 15:30N 38°35' W 009°50'510.0
2017-Aug-12 15:00N 38°30' W 009°48'510.1
2017-Aug-12 14:30N 38°25' W 009°46'510.0
2017-Aug-12 14:00N 38°20' W 009°45'5 9.8
2017-Aug-12 13:30N 38°15' W 009°44'510.1
2017-Aug-12 13:00N 38°10' W 009°42'510.2
2017-Aug-12 12:30N 38°05' W 009°41'510.5
2017-Aug-12 12:00N 38°00' W 009°39'510.4
2017-Aug-12 11:30N 37°55' W 009°38'510.1
2017-Aug-12 11:00N 37°50' W 009°36'510.0
2017-Aug-12 10:30N 37°45' W 009°35'5 9.6
2017-Aug-12 10:00N 37°41' W 009°34'5 9.5
2017-Aug-12 09:30N 37°36' W 009°32'510.0
2017-Aug-12 09:00N 37°31' W 009°30'510.5
2017-Aug-12 08:30N 37°26' W 009°29'510.6
2017-Aug-12 08:00N 37°21' W 009°27'510.5
2017-Aug-12 07:30N 37°16' W 009°26'510.7
2017-Aug-12 07:00N 37°11' W 009°25'510.7
2017-Aug-12 06:30N 37°05' W 009°23'510.8
2017-Aug-12 06:00N 37°00' W 009°22'510.4
2017-Aug-12 05:30N 36°55' W 009°20'510.4
2017-Aug-12 05:00N 36°51' W 009°16'510.8
2017-Aug-12 04:30N 36°47' W 009°12'1810.3
2017-Aug-12 02:43N 36°40' W 008°51'3310.7
2017-Aug-11 23:37N 36°30' W 008°11'210.8
2017-Aug-11 23:26N 36°29' W 008°09'510.8
2017-Aug-11 22:59N 36°28' W 008°03'510.6
2017-Aug-11 22:30N 36°26' W 007°57'11611.0
2017-Aug-11 11:58N 35°58' W 005°38'510.6
2017-Aug-11 11:30N 35°59' W 005°32'510.1
2017-Aug-11 11:00N 35°60' W 005°26'510.1
2017-Aug-11 10:30N 36°01' W 005°20'510.3
2017-Aug-11 10:00N 36°02' W 005°14'  
2017-Aug-08 21:18N 37°39' E 008°05'411.7
2017-Aug-08 20:59N 37°39' E 008°09'812.1
2017-Aug-08 20:20N 37°39' E 008°19'1311.7
2017-Aug-08 19:12N 37°40' E 008°36'311.5
2017-Aug-08 18:58N 37°41' E 008°39'710.8
2017-Aug-08 18:19N 37°42' E 008°48'410.6
2017-Aug-08 17:55N 37°42' E 008°54'510.5
2017-Aug-08 17:27N 37°42' E 008°60'510.7
2017-Aug-08 17:00N 37°42' E 009°06'510.6
2017-Aug-08 16:30N 37°42' E 009°12'510.6
2017-Aug-08 15:59N 37°42' E 009°19'510.6
2017-Aug-08 15:30N 37°41' E 009°26'610.6
2017-Aug-08 14:57N 37°41' E 009°33'510.6
2017-Aug-08 14:29N 37°41' E 009°39'510.7
2017-Aug-08 14:00N 37°41' E 009°46'510.9
2017-Aug-08 13:30N 37°41' E 009°53'611.1
2017-Aug-08 13:00N 37°40' E 010°00'511.0
2017-Aug-08 12:30N 37°40' E 010°07'510.9
2017-Aug-08 12:00N 37°40' E 010°14'611.1
2017-Aug-08 11:30N 37°38' E 010°21'511.0
2017-Aug-08 11:00N 37°37' E 010°27'510.9
2017-Aug-08 10:30N 37°36' E 010°34'511.0
2017-Aug-08 10:00N 37°34' E 010°41'510.8
2017-Aug-08 09:30N 37°33' E 010°47'510.9
2017-Aug-08 09:00N 37°31' E 010°54'511.0
2017-Aug-08 08:30N 37°30' E 011°00'610.8
2017-Aug-08 07:59N 37°28' E 011°07'510.6
2017-Aug-08 07:29N 37°27' E 011°14'3010.8
2017-Aug-08 04:43N 37°12' E 011°47'211.3
2017-Aug-08 04:30N 37°11' E 011°49'811.4
2017-Aug-08 03:46N 37°08' E 011°59'311.4
2017-Aug-08 03:30N 37°06' E 012°02'1711.3
2017-Aug-08 02:00N 36°60' E 012°22'611.4
2017-Aug-08 01:30N 36°58' E 012°28'611.3
2017-Aug-08 00:59N 36°56' E 012°35'711.2
2017-Aug-08 00:24N 36°55' E 012°43'411.3
2017-Aug-08 00:00N 36°54' E 012°49'611.0
2017-Aug-07 23:30N 36°53' E 012°56'510.8
2017-Aug-07 23:00N 36°52' E 013°02'610.8
2017-Aug-07 22:26N 36°51' E 013°10'2511.1
2017-Aug-07 20:11N 36°46' E 013°40'410.9
2017-Aug-07 19:46N 36°45' E 013°46'311.0
2017-Aug-07 19:30N 36°44' E 013°49'510.9
2017-Aug-07 19:00N 36°43' E 013°56'510.7
2017-Aug-07 18:30N 36°42' E 014°03'510.6
2017-Aug-07 18:00N 36°41' E 014°09'510.5
2017-Aug-07 17:30N 36°40' E 014°16'510.3
2017-Aug-07 17:00N 36°39' E 014°22'510.3
2017-Aug-07 16:30N 36°38' E 014°28'510.3
2017-Aug-07 16:00N 36°37' E 014°35'510.1
2017-Aug-07 15:30N 36°36' E 014°41'510.2
2017-Aug-07 15:00N 36°35' E 014°47'510.5
2017-Aug-07 14:30N 36°34' E 014°53'510.6
2017-Aug-07 14:00N 36°33' E 014°60'611.2
2017-Aug-07 13:30N 36°32' E 015°07'611.5
2017-Aug-07 13:00N 36°32' E 015°14'611.5
2017-Aug-07 12:30N 36°32' E 015°21'611.4
2017-Aug-07 12:00N 36°32' E 015°28'611.4
2017-Aug-07 11:30N 36°32' E 015°35'611.4
2017-Aug-07 11:00N 36°31' E 015°42'611.4
2017-Aug-07 10:30N 36°31' E 015°49'611.4
2017-Aug-07 10:00N 36°31' E 015°57'911.4
2017-Aug-07 09:12N 36°31' E 016°08'211.4
2017-Aug-07 09:00N 36°31' E 016°11'611.3
2017-Aug-07 08:28N 36°31' E 016°18'7210.8
2017-Aug-07 01:50N 36°28' E 017°47'410.5
2017-Aug-07 01:30N 36°28' E 017°52'510.5
2017-Aug-07 00:59N 36°28' E 017°58'610.5
2017-Aug-07 00:27N 36°28' E 018°06'510.6
2017-Aug-07 00:00N 36°27' E 018°11'610.6
2017-Aug-06 23:24N 36°27' E 018°19'610.8
2017-Aug-06 22:52N 36°27' E 018°27'410.9
2017-Aug-06 22:30N 36°27' E 018°31'1211.0
2017-Aug-06 21:25N 36°27' E 018°46'1111.1
2017-Aug-06 20:26N 36°26' E 018°60'511.2
2017-Aug-06 20:00N 36°26' E 019°06'  

Dump ship's entire track history